UNTT/TOF METAR and TAF weather

Enter ICAO airport designator
Station Type Date Time Source
UNTT METAR 2021/05/16 00:30 UTC NOAA

UNTT 160030Z 09003MPS 3400 BR OVC002 12/12 Q1013 R21/190055 NOSIG RMK QFE744


Station Type Date Time Source
UNTT Decoded METAR 2021/05/16 00:30 UTC NOAA

Station name not available
May 15, 2021 - 08:30 PM EDT / 2021.05.16 0030 UTC
Wind: from the E (090 degrees) at 7 MPH (6 KT):0
Visibility: 2 mile(s):0
Sky conditions: overcast
Weather: mist
Temperature: 53 F (12 C)
Dew Point: 53 F (12 C)
Relative Humidity: 100%
Pressure (altimeter): 29.91 in. Hg (1013 hPa)
ob: UNTT 160030Z 09003MPS 3400 BR OVC002 12/12 Q1013 R21/190055 NOSIG RMK QFE744
cycle: 0

Station Type Date Time Source
UNTT TAF UTC NOAA

Error!

Example: see airport list